sensor_id;sensor_type;location;lat;lon;timestamp;P1;durP1;ratioP1;P2;durP2;ratioP2
44456;SDS011;30159;49.316;8.558;2023-07-20T00:01:37;2.20;;;1.20;;
44456;SDS011;30159;49.316;8.558;2023-07-20T00:04:06;1.20;;;1.10;;
44456;SDS011;30159;49.316;8.558;2023-07-20T00:06:32;1.77;;;1.30;;
44456;SDS011;30159;49.316;8.558;2023-07-20T00:08:59;1.30;;;1.20;;
44456;SDS011;30159;49.316;8.558;2023-07-20T00:11:26;1.23;;;1.13;;
44456;SDS011;30159;49.316;8.558;2023-07-20T00:13:54;1.27;;;1.17;;
44456;SDS011;30159;49.316;8.558;2023-07-20T00:16:21;1.57;;;1.37;;
44456;SDS011;30159;49.316;8.558;2023-07-20T00:18:47;2.17;;;1.40;;
44456;SDS011;30159;49.316;8.558;2023-07-20T00:21:14;1.50;;;1.17;;
44456;SDS011;30159;49.316;8.558;2023-07-20T00:23:41;2.40;;;1.47;;
44456;SDS011;30159;49.316;8.558;2023-07-20T00:26:07;1.47;;;1.20;;
44456;SDS011;30159;49.316;8.558;2023-07-20T00:28:34;1.60;;;1.50;;
44456;SDS011;30159;49.316;8.558;2023-07-20T00:31:02;2.03;;;1.20;;
44456;SDS011;30159;49.316;8.558;2023-07-20T00:33:29;1.50;;;1.33;;
44456;SDS011;30159;49.316;8.558;2023-07-20T00:35:55;1.27;;;1.17;;
44456;SDS011;30159;49.316;8.558;2023-07-20T00:38:22;1.20;;;1.10;;
44456;SDS011;30159;49.316;8.558;2023-07-20T00:40:48;1.50;;;1.40;;
44456;SDS011;30159;49.316;8.558;2023-07-20T00:43:15;2.50;;;1.10;;
44456;SDS011;30159;49.316;8.558;2023-07-20T00:45:42;1.57;;;1.00;;
44456;SDS011;30159;49.316;8.558;2023-07-20T00:48:11;1.23;;;1.10;;
44456;SDS011;30159;49.316;8.558;2023-07-20T00:50:38;1.50;;;1.20;;
44456;SDS011;30159;49.316;8.558;2023-07-20T00:53:06;1.90;;;1.00;;
44456;SDS011;30159;49.316;8.558;2023-07-20T00:55:34;1.37;;;1.13;;
44456;SDS011;30159;49.316;8.558;2023-07-20T00:58:01;1.30;;;1.20;;
44456;SDS011;30159;49.316;8.558;2023-07-20T01:00:27;2.70;;;1.40;;
44456;SDS011;30159;49.316;8.558;2023-07-20T01:02:54;2.90;;;1.50;;
44456;SDS011;30159;49.316;8.558;2023-07-20T01:05:23;1.57;;;1.27;;
44456;SDS011;30159;49.316;8.558;2023-07-20T01:07:58;1.87;;;1.47;;
44456;SDS011;30159;49.316;8.558;2023-07-20T01:10:31;1.47;;;1.20;;
44456;SDS011;30159;49.316;8.558;2023-07-20T01:13:02;1.70;;;1.20;;
44456;SDS011;30159;49.316;8.558;2023-07-20T01:15:33;3.10;;;1.20;;
44456;SDS011;30159;49.316;8.558;2023-07-20T01:18:00;1.60;;;1.30;;
44456;SDS011;30159;49.316;8.558;2023-07-20T01:20:31;1.50;;;1.20;;
44456;SDS011;30159;49.316;8.558;2023-07-20T01:26:09;1.63;;;1.40;;
44456;SDS011;30159;49.316;8.558;2023-07-20T01:29:07;1.30;;;1.20;;
44456;SDS011;30159;49.316;8.558;2023-07-20T01:31:45;1.20;;;1.10;;
44456;SDS011;30159;49.316;8.558;2023-07-20T01:34:15;1.10;;;1.00;;
44456;SDS011;30159;49.316;8.558;2023-07-20T01:36:44;1.63;;;1.30;;
44456;SDS011;30159;49.316;8.558;2023-07-20T01:39:12;1.20;;;1.10;;
44456;SDS011;30159;49.316;8.558;2023-07-20T01:41:39;1.30;;;1.20;;
44456;SDS011;30159;49.316;8.558;2023-07-20T01:44:06;1.33;;;1.23;;
44456;SDS011;30159;49.316;8.558;2023-07-20T01:46:33;1.90;;;1.30;;
44456;SDS011;30159;49.316;8.558;2023-07-20T01:49:02;2.23;;;1.20;;
44456;SDS011;30159;49.316;8.558;2023-07-20T01:51:28;1.83;;;1.40;;
44456;SDS011;30159;49.316;8.558;2023-07-20T01:53:55;1.97;;;1.33;;
44456;SDS011;30159;49.316;8.558;2023-07-20T01:56:22;2.20;;;1.63;;
44456;SDS011;30159;49.316;8.558;2023-07-20T01:58:48;5.80;;;1.50;;
44456;SDS011;30159;49.316;8.558;2023-07-20T02:01:15;1.60;;;1.23;;
44456;SDS011;30159;49.316;8.558;2023-07-20T02:03:41;1.60;;;1.50;;
44456;SDS011;30159;49.316;8.558;2023-07-20T02:06:09;1.40;;;1.30;;
44456;SDS011;30159;49.316;8.558;2023-07-20T02:08:36;2.00;;;1.30;;
44456;SDS011;30159;49.316;8.558;2023-07-20T02:11:02;1.90;;;1.30;;
44456;SDS011;30159;49.316;8.558;2023-07-20T02:13:30;2.63;;;1.40;;
44456;SDS011;30159;49.316;8.558;2023-07-20T02:15:56;2.27;;;1.20;;
44456;SDS011;30159;49.316;8.558;2023-07-20T02:18:23;1.73;;;1.27;;
44456;SDS011;30159;49.316;8.558;2023-07-20T02:20:49;3.10;;;2.07;;
44456;SDS011;30159;49.316;8.558;2023-07-20T02:23:20;1.50;;;1.40;;
44456;SDS011;30159;49.316;8.558;2023-07-20T02:25:47;2.57;;;1.53;;
44456;SDS011;30159;49.316;8.558;2023-07-20T02:28:13;3.57;;;1.57;;
44456;SDS011;30159;49.316;8.558;2023-07-20T02:30:40;1.33;;;1.23;;
44456;SDS011;30159;49.316;8.558;2023-07-20T02:33:07;1.60;;;1.40;;
44456;SDS011;30159;49.316;8.558;2023-07-20T02:35:34;1.83;;;1.40;;
44456;SDS011;30159;49.316;8.558;2023-07-20T02:38:00;1.73;;;1.47;;
44456;SDS011;30159;49.316;8.558;2023-07-20T02:40:28;1.30;;;1.20;;
44456;SDS011;30159;49.316;8.558;2023-07-20T02:42:55;1.53;;;1.43;;
44456;SDS011;30159;49.316;8.558;2023-07-20T02:45:21;1.67;;;1.57;;
44456;SDS011;30159;49.316;8.558;2023-07-20T02:47:48;2.13;;;1.20;;
44456;SDS011;30159;49.316;8.558;2023-07-20T02:50:15;3.30;;;1.40;;
44456;SDS011;30159;49.316;8.558;2023-07-20T02:52:42;1.60;;;1.47;;
44456;SDS011;30159;49.316;8.558;2023-07-20T02:55:08;2.03;;;1.80;;
44456;SDS011;30159;49.316;8.558;2023-07-20T02:57:37;5.00;;;2.37;;
44456;SDS011;30159;49.316;8.558;2023-07-20T03:00:04;1.77;;;1.30;;
44456;SDS011;30159;49.316;8.558;2023-07-20T03:02:32;1.60;;;1.40;;
44456;SDS011;30159;49.316;8.558;2023-07-20T03:04:58;2.80;;;1.73;;
44456;SDS011;30159;49.316;8.558;2023-07-20T03:07:26;1.40;;;1.30;;
44456;SDS011;30159;49.316;8.558;2023-07-20T03:09:54;3.80;;;1.90;;
44456;SDS011;30159;49.316;8.558;2023-07-20T03:12:21;2.70;;;1.40;;
44456;SDS011;30159;49.316;8.558;2023-07-20T03:14:49;1.50;;;1.30;;
44456;SDS011;30159;49.316;8.558;2023-07-20T03:17:15;3.10;;;1.37;;
44456;SDS011;30159;49.316;8.558;2023-07-20T03:19:42;1.57;;;1.40;;
44456;SDS011;30159;49.316;8.558;2023-07-20T03:22:08;1.43;;;1.33;;
44456;SDS011;30159;49.316;8.558;2023-07-20T03:24:37;1.50;;;1.40;;
44456;SDS011;30159;49.316;8.558;2023-07-20T03:27:04;1.80;;;1.70;;
44456;SDS011;30159;49.316;8.558;2023-07-20T03:29:31;1.50;;;1.40;;
44456;SDS011;30159;49.316;8.558;2023-07-20T03:31:59;2.10;;;1.67;;
44456;SDS011;30159;49.316;8.558;2023-07-20T03:34:26;1.70;;;1.50;;
44456;SDS011;30159;49.316;8.558;2023-07-20T03:36:52;1.87;;;1.70;;
44456;SDS011;30159;49.316;8.558;2023-07-20T03:39:19;2.83;;;1.60;;
44456;SDS011;30159;49.316;8.558;2023-07-20T03:41:45;2.27;;;1.50;;
44456;SDS011;30159;49.316;8.558;2023-07-20T03:44:12;2.40;;;1.47;;
44456;SDS011;30159;49.316;8.558;2023-07-20T03:46:38;2.63;;;1.40;;
44456;SDS011;30159;49.316;8.558;2023-07-20T03:49:06;3.07;;;1.80;;
44456;SDS011;30159;49.316;8.558;2023-07-20T03:51:34;1.90;;;1.60;;
44456;SDS011;30159;49.316;8.558;2023-07-20T03:54:00;2.03;;;1.53;;
44456;SDS011;30159;49.316;8.558;2023-07-20T03:56:27;2.90;;;1.40;;
44456;SDS011;30159;49.316;8.558;2023-07-20T03:58:56;1.70;;;1.33;;
44456;SDS011;30159;49.316;8.558;2023-07-20T04:01:23;1.50;;;1.40;;
44456;SDS011;30159;49.316;8.558;2023-07-20T04:03:50;1.60;;;1.50;;
44456;SDS011;30159;49.316;8.558;2023-07-20T04:06:18;1.40;;;1.30;;
44456;SDS011;30159;49.316;8.558;2023-07-20T04:08:44;1.57;;;1.47;;
44456;SDS011;30159;49.316;8.558;2023-07-20T04:11:12;2.00;;;1.90;;
44456;SDS011;30159;49.316;8.558;2023-07-20T04:13:39;1.73;;;1.40;;
44456;SDS011;30159;49.316;8.558;2023-07-20T04:16:05;2.00;;;1.50;;
44456;SDS011;30159;49.316;8.558;2023-07-20T04:18:32;1.70;;;1.60;;
44456;SDS011;30159;49.316;8.558;2023-07-20T04:20:58;1.93;;;1.47;;
44456;SDS011;30159;49.316;8.558;2023-07-20T04:23:26;5.30;;;1.50;;
44456;SDS011;30159;49.316;8.558;2023-07-20T04:25:53;2.30;;;1.50;;
44456;SDS011;30159;49.316;8.558;2023-07-20T04:28:19;1.70;;;1.47;;
44456;SDS011;30159;49.316;8.558;2023-07-20T04:30:48;2.13;;;1.57;;
44456;SDS011;30159;49.316;8.558;2023-07-20T04:33:15;3.07;;;1.37;;
44456;SDS011;30159;49.316;8.558;2023-07-20T04:35:45;2.87;;;1.70;;
44456;SDS011;30159;49.316;8.558;2023-07-20T04:38:16;1.90;;;1.53;;
44456;SDS011;30159;49.316;8.558;2023-07-20T04:40:45;2.90;;;1.80;;
44456;SDS011;30159;49.316;8.558;2023-07-20T04:43:13;1.43;;;1.33;;
44456;SDS011;30159;49.316;8.558;2023-07-20T04:45:40;1.43;;;1.33;;
44456;SDS011;30159;49.316;8.558;2023-07-20T04:48:08;1.70;;;1.60;;
44456;SDS011;30159;49.316;8.558;2023-07-20T04:50:37;5.07;;;2.20;;
44456;SDS011;30159;49.316;8.558;2023-07-20T04:53:04;4.13;;;1.70;;
44456;SDS011;30159;49.316;8.558;2023-07-20T04:55:31;1.73;;;1.40;;
44456;SDS011;30159;49.316;8.558;2023-07-20T04:58:00;1.57;;;1.47;;
44456;SDS011;30159;49.316;8.558;2023-07-20T05:00:26;3.20;;;1.63;;
44456;SDS011;30159;49.316;8.558;2023-07-20T05:02:53;2.07;;;1.40;;
44456;SDS011;30159;49.316;8.558;2023-07-20T05:05:20;11.87;;;2.40;;
44456;SDS011;30159;49.316;8.558;2023-07-20T05:07:46;2.47;;;1.60;;
44456;SDS011;30159;49.316;8.558;2023-07-20T05:10:13;1.90;;;1.70;;
44456;SDS011;30159;49.316;8.558;2023-07-20T05:12:40;3.53;;;1.60;;
44456;SDS011;30159;49.316;8.558;2023-07-20T05:15:08;2.70;;;1.60;;
44456;SDS011;30159;49.316;8.558;2023-07-20T05:17:35;1.50;;;1.33;;
44456;SDS011;30159;49.316;8.558;2023-07-20T05:20:02;2.50;;;1.93;;
44456;SDS011;30159;49.316;8.558;2023-07-20T05:22:30;2.57;;;1.80;;
44456;SDS011;30159;49.316;8.558;2023-07-20T05:24:56;4.43;;;1.30;;
44456;SDS011;30159;49.316;8.558;2023-07-20T05:27:23;2.23;;;1.50;;
44456;SDS011;30159;49.316;8.558;2023-07-20T05:29:49;1.90;;;1.70;;
44456;SDS011;30159;49.316;8.558;2023-07-20T05:32:18;3.20;;;1.90;;
44456;SDS011;30159;49.316;8.558;2023-07-20T05:34:44;1.43;;;1.33;;
44456;SDS011;30159;49.316;8.558;2023-07-20T05:37:11;1.83;;;1.67;;
44456;SDS011;30159;49.316;8.558;2023-07-20T05:39:37;1.97;;;1.53;;
44456;SDS011;30159;49.316;8.558;2023-07-20T05:42:04;1.70;;;1.60;;
44456;SDS011;30159;49.316;8.558;2023-07-20T05:44:31;1.60;;;1.50;;
44456;SDS011;30159;49.316;8.558;2023-07-20T05:46:58;1.47;;;1.37;;
44456;SDS011;30159;49.316;8.558;2023-07-20T05:49:26;2.00;;;1.50;;
44456;SDS011;30159;49.316;8.558;2023-07-20T05:51:53;1.60;;;1.50;;
44456;SDS011;30159;49.316;8.558;2023-07-20T05:54:20;2.47;;;1.67;;
44456;SDS011;30159;49.316;8.558;2023-07-20T05:56:46;1.60;;;1.50;;
44456;SDS011;30159;49.316;8.558;2023-07-20T05:59:13;1.40;;;1.20;;
44456;SDS011;30159;49.316;8.558;2023-07-20T06:01:40;4.53;;;1.90;;
44456;SDS011;30159;49.316;8.558;2023-07-20T06:04:06;2.80;;;1.70;;
44456;SDS011;30159;49.316;8.558;2023-07-20T06:06:34;1.80;;;1.70;;
44456;SDS011;30159;49.316;8.558;2023-07-20T06:09:01;1.60;;;1.50;;
44456;SDS011;30159;49.316;8.558;2023-07-20T06:11:29;1.93;;;1.73;;
44456;SDS011;30159;49.316;8.558;2023-07-20T06:13:55;4.70;;;1.67;;
44456;SDS011;30159;49.316;8.558;2023-07-20T06:16:22;2.13;;;1.90;;
44456;SDS011;30159;49.316;8.558;2023-07-20T06:18:48;1.97;;;1.87;;
44456;SDS011;30159;49.316;8.558;2023-07-20T06:21:15;2.00;;;1.90;;
44456;SDS011;30159;49.316;8.558;2023-07-20T06:23:43;2.50;;;2.30;;
44456;SDS011;30159;49.316;8.558;2023-07-20T06:26:09;2.17;;;2.07;;
44456;SDS011;30159;49.316;8.558;2023-07-20T06:28:36;2.73;;;2.10;;
44456;SDS011;30159;49.316;8.558;2023-07-20T06:31:03;2.10;;;1.90;;
44456;SDS011;30159;49.316;8.558;2023-07-20T06:33:30;3.20;;;1.90;;
44456;SDS011;30159;49.316;8.558;2023-07-20T06:35:57;2.37;;;2.00;;
44456;SDS011;30159;49.316;8.558;2023-07-20T06:38:23;2.10;;;1.90;;
44456;SDS011;30159;49.316;8.558;2023-07-20T06:40:52;2.87;;;1.93;;
44456;SDS011;30159;49.316;8.558;2023-07-20T06:43:19;1.90;;;1.80;;
44456;SDS011;30159;49.316;8.558;2023-07-20T06:45:50;2.70;;;2.00;;
44456;SDS011;30159;49.316;8.558;2023-07-20T06:48:18;2.60;;;2.40;;
44456;SDS011;30159;49.316;8.558;2023-07-20T06:50:45;3.70;;;2.23;;
44456;SDS011;30159;49.316;8.558;2023-07-20T06:53:12;2.20;;;2.07;;
44456;SDS011;30159;49.316;8.558;2023-07-20T06:55:38;2.20;;;1.90;;
44456;SDS011;30159;49.316;8.558;2023-07-20T06:58:06;2.30;;;2.10;;
44456;SDS011;30159;49.316;8.558;2023-07-20T07:00:33;5.63;;;2.47;;
44456;SDS011;30159;49.316;8.558;2023-07-20T07:02:59;2.57;;;2.37;;
44456;SDS011;30159;49.316;8.558;2023-07-20T07:05:26;3.50;;;2.40;;
44456;SDS011;30159;49.316;8.558;2023-07-20T07:07:52;5.33;;;3.07;;
44456;SDS011;30159;49.316;8.558;2023-07-20T07:10:19;3.23;;;2.33;;
44456;SDS011;30159;49.316;8.558;2023-07-20T07:12:46;2.70;;;2.47;;
44456;SDS011;30159;49.316;8.558;2023-07-20T07:15:14;3.13;;;2.47;;
44456;SDS011;30159;49.316;8.558;2023-07-20T07:17:40;2.13;;;1.60;;
44456;SDS011;30159;49.316;8.558;2023-07-20T07:20:08;1.70;;;1.60;;
44456;SDS011;30159;49.316;8.558;2023-07-20T07:22:35;1.70;;;1.60;;
44456;SDS011;30159;49.316;8.558;2023-07-20T07:25:02;1.97;;;1.80;;
44456;SDS011;30159;49.316;8.558;2023-07-20T07:27:29;1.80;;;1.70;;
44456;SDS011;30159;49.316;8.558;2023-07-20T07:29:55;1.90;;;1.80;;
44456;SDS011;30159;49.316;8.558;2023-07-20T07:32:23;1.70;;;1.60;;
44456;SDS011;30159;49.316;8.558;2023-07-20T07:34:50;1.70;;;1.60;;
44456;SDS011;30159;49.316;8.558;2023-07-20T07:37:17;2.10;;;2.00;;
44456;SDS011;30159;49.316;8.558;2023-07-20T07:39:44;2.03;;;1.83;;
44456;SDS011;30159;49.316;8.558;2023-07-20T07:42:11;2.20;;;1.70;;
44456;SDS011;30159;49.316;8.558;2023-07-20T07:44:38;1.40;;;1.30;;
44456;SDS011;30159;49.316;8.558;2023-07-20T07:47:04;2.83;;;1.70;;
44456;SDS011;30159;49.316;8.558;2023-07-20T07:49:32;1.57;;;1.47;;
44456;SDS011;30159;49.316;8.558;2023-07-20T07:51:59;1.50;;;1.40;;
44456;SDS011;30159;49.316;8.558;2023-07-20T07:54:27;1.83;;;1.30;;
44456;SDS011;30159;49.316;8.558;2023-07-20T07:56:54;1.60;;;1.30;;
44456;SDS011;30159;49.316;8.558;2023-07-20T07:59:21;1.43;;;1.13;;
44456;SDS011;30159;49.316;8.558;2023-07-20T08:01:47;1.27;;;1.17;;
44456;SDS011;30159;49.316;8.558;2023-07-20T08:04:14;1.60;;;1.20;;
44456;SDS011;30159;49.316;8.558;2023-07-20T08:06:42;2.90;;;1.40;;
44456;SDS011;30159;49.316;8.558;2023-07-20T08:09:08;1.50;;;1.40;;
44456;SDS011;30159;49.316;8.558;2023-07-20T08:11:35;1.53;;;1.40;;
44456;SDS011;30159;49.316;8.558;2023-07-20T08:14:01;1.37;;;1.27;;
44456;SDS011;30159;49.316;8.558;2023-07-20T08:16:28;1.67;;;1.33;;
44456;SDS011;30159;49.316;8.558;2023-07-20T08:18:55;2.03;;;1.10;;
44456;SDS011;30159;49.316;8.558;2023-07-20T08:21:21;1.40;;;1.30;;
44456;SDS011;30159;49.316;8.558;2023-07-20T08:23:49;1.50;;;1.40;;
44456;SDS011;30159;49.316;8.558;2023-07-20T08:26:16;1.43;;;1.33;;
44456;SDS011;30159;49.316;8.558;2023-07-20T08:28:44;1.50;;;1.40;;
44456;SDS011;30159;49.316;8.558;2023-07-20T08:31:11;1.43;;;1.33;;
44456;SDS011;30159;49.316;8.558;2023-07-20T08:33:37;1.57;;;1.30;;
44456;SDS011;30159;49.316;8.558;2023-07-20T08:36:04;1.50;;;1.40;;
44456;SDS011;30159;49.316;8.558;2023-07-20T08:38:31;1.90;;;1.43;;
44456;SDS011;30159;49.316;8.558;2023-07-20T08:40:59;2.77;;;2.50;;
44456;SDS011;30159;49.316;8.558;2023-07-20T08:43:27;1.57;;;1.37;;
44456;SDS011;30159;49.316;8.558;2023-07-20T08:45:54;1.93;;;1.27;;
44456;SDS011;30159;49.316;8.558;2023-07-20T08:48:21;1.30;;;1.20;;
44456;SDS011;30159;49.316;8.558;2023-07-20T08:50:51;1.50;;;1.40;;
44456;SDS011;30159;49.316;8.558;2023-07-20T08:53:20;2.60;;;1.20;;
44456;SDS011;30159;49.316;8.558;2023-07-20T08:55:47;1.50;;;1.10;;
44456;SDS011;30159;49.316;8.558;2023-07-20T08:58:18;1.40;;;1.20;;
44456;SDS011;30159;49.316;8.558;2023-07-20T09:00:45;1.23;;;1.13;;
44456;SDS011;30159;49.316;8.558;2023-07-20T09:03:15;1.30;;;1.20;;
44456;SDS011;30159;49.316;8.558;2023-07-20T09:05:42;3.73;;;1.07;;
44456;SDS011;30159;49.316;8.558;2023-07-20T09:08:08;1.17;;;1.07;;
44456;SDS011;30159;49.316;8.558;2023-07-20T09:10:35;1.60;;;1.27;;
44456;SDS011;30159;49.316;8.558;2023-07-20T09:13:01;1.27;;;1.17;;
44456;SDS011;30159;49.316;8.558;2023-07-20T09:15:29;1.10;;;1.00;;
44456;SDS011;30159;49.316;8.558;2023-07-20T09:17:56;1.10;;;0.90;;
44456;SDS011;30159;49.316;8.558;2023-07-20T09:20:28;1.93;;;1.20;;
44456;SDS011;30159;49.316;8.558;2023-07-20T09:22:58;2.60;;;1.00;;
44456;SDS011;30159;49.316;8.558;2023-07-20T09:25:25;2.13;;;1.00;;
44456;SDS011;30159;49.316;8.558;2023-07-20T09:27:53;1.47;;;1.10;;
44456;SDS011;30159;49.316;8.558;2023-07-20T09:30:21;2.10;;;1.00;;
44456;SDS011;30159;49.316;8.558;2023-07-20T09:32:53;1.30;;;1.20;;
44456;SDS011;30159;49.316;8.558;2023-07-20T09:35:20;1.10;;;1.00;;
44456;SDS011;30159;49.316;8.558;2023-07-20T09:37:49;1.20;;;1.10;;
44456;SDS011;30159;49.316;8.558;2023-07-20T09:40:18;1.33;;;1.23;;
44456;SDS011;30159;49.316;8.558;2023-07-20T09:42:46;1.50;;;0.90;;
44456;SDS011;30159;49.316;8.558;2023-07-20T09:45:13;1.13;;;0.97;;
44456;SDS011;30159;49.316;8.558;2023-07-20T09:47:40;1.60;;;1.13;;
44456;SDS011;30159;49.316;8.558;2023-07-20T09:50:08;1.10;;;1.00;;
44456;SDS011;30159;49.316;8.558;2023-07-20T09:52:40;1.20;;;1.10;;
44456;SDS011;30159;49.316;8.558;2023-07-20T09:55:09;1.10;;;1.00;;
44456;SDS011;30159;49.316;8.558;2023-07-20T09:57:37;1.50;;;1.10;;
44456;SDS011;30159;49.316;8.558;2023-07-20T10:00:04;3.30;;;1.30;;
44456;SDS011;30159;49.316;8.558;2023-07-20T10:02:39;3.43;;;1.20;;
44456;SDS011;30159;49.316;8.558;2023-07-20T10:05:10;1.93;;;1.10;;
44456;SDS011;30159;49.316;8.558;2023-07-20T10:07:41;1.10;;;1.00;;
44456;SDS011;30159;49.316;8.558;2023-07-20T10:10:11;1.73;;;1.30;;
44456;SDS011;30159;49.316;8.558;2023-07-20T10:12:40;1.10;;;1.00;;
44456;SDS011;30159;49.316;8.558;2023-07-20T10:15:10;2.13;;;1.10;;
44456;SDS011;30159;49.316;8.558;2023-07-20T10:17:40;2.13;;;1.27;;
44456;SDS011;30159;49.316;8.558;2023-07-20T10:20:16;1.33;;;1.20;;
44456;SDS011;30159;49.316;8.558;2023-07-20T10:22:45;1.17;;;1.07;;
44456;SDS011;30159;49.316;8.558;2023-07-20T10:25:15;1.30;;;1.13;;
44456;SDS011;30159;49.316;8.558;2023-07-20T10:27:45;2.00;;;1.47;;
44456;SDS011;30159;49.316;8.558;2023-07-20T10:30:12;1.33;;;1.23;;
44456;SDS011;30159;49.316;8.558;2023-07-20T10:32:39;1.13;;;1.03;;
44456;SDS011;30159;49.316;8.558;2023-07-20T10:35:15;2.03;;;1.20;;
44456;SDS011;30159;49.316;8.558;2023-07-20T10:37:46;1.50;;;1.40;;
44456;SDS011;30159;49.316;8.558;2023-07-20T10:40:24;2.30;;;1.30;;
44456;SDS011;30159;49.316;8.558;2023-07-20T10:43:01;2.20;;;1.20;;
44456;SDS011;30159;49.316;8.558;2023-07-20T10:45:33;1.20;;;1.10;;
44456;SDS011;30159;49.316;8.558;2023-07-20T10:48:02;1.20;;;0.90;;
44456;SDS011;30159;49.316;8.558;2023-07-20T10:50:31;1.37;;;1.10;;
44456;SDS011;30159;49.316;8.558;2023-07-20T10:53:05;1.00;;;0.90;;
44456;SDS011;30159;49.316;8.558;2023-07-20T10:55:36;1.50;;;1.00;;
44456;SDS011;30159;49.316;8.558;2023-07-20T10:58:06;1.13;;;0.90;;
44456;SDS011;30159;49.316;8.558;2023-07-20T11:00:34;1.40;;;1.20;;
44456;SDS011;30159;49.316;8.558;2023-07-20T11:03:00;1.20;;;1.10;;
44456;SDS011;30159;49.316;8.558;2023-07-20T11:05:38;1.40;;;1.20;;
44456;SDS011;30159;49.316;8.558;2023-07-20T11:08:06;1.30;;;1.00;;
44456;SDS011;30159;49.316;8.558;2023-07-20T11:10:36;1.27;;;1.03;;
44456;SDS011;30159;49.316;8.558;2023-07-20T11:13:22;1.30;;;1.03;;
44456;SDS011;30159;49.316;8.558;2023-07-20T11:16:03;1.23;;;1.13;;
44456;SDS011;30159;49.316;8.558;2023-07-20T11:18:32;3.57;;;1.20;;
44456;SDS011;30159;49.316;8.558;2023-07-20T11:21:02;1.20;;;1.10;;
44456;SDS011;30159;49.316;8.558;2023-07-20T11:23:30;3.80;;;1.10;;
44456;SDS011;30159;49.316;8.558;2023-07-20T11:25:58;1.30;;;1.00;;
44456;SDS011;30159;49.316;8.558;2023-07-20T11:28:25;1.23;;;1.13;;
44456;SDS011;30159;49.316;8.558;2023-07-20T11:30:52;1.20;;;1.10;;
44456;SDS011;30159;49.316;8.558;2023-07-20T11:33:19;1.20;;;1.00;;
44456;SDS011;30159;49.316;8.558;2023-07-20T11:35:46;1.20;;;1.10;;
44456;SDS011;30159;49.316;8.558;2023-07-20T11:38:14;1.10;;;1.00;;
44456;SDS011;30159;49.316;8.558;2023-07-20T11:40:42;1.20;;;1.10;;
44456;SDS011;30159;49.316;8.558;2023-07-20T11:43:09;1.30;;;1.20;;
44456;SDS011;30159;49.316;8.558;2023-07-20T11:45:38;1.23;;;1.13;;
44456;SDS011;30159;49.316;8.558;2023-07-20T11:48:04;1.73;;;1.30;;
44456;SDS011;30159;49.316;8.558;2023-07-20T11:50:31;1.30;;;1.20;;
44456;SDS011;30159;49.316;8.558;2023-07-20T11:52:58;1.20;;;1.10;;
44456;SDS011;30159;49.316;8.558;2023-07-20T11:55:26;1.13;;;1.03;;
44456;SDS011;30159;49.316;8.558;2023-07-20T11:58:03;1.83;;;1.10;;
44456;SDS011;30159;49.316;8.558;2023-07-20T12:00:30;1.27;;;1.03;;
44456;SDS011;30159;49.316;8.558;2023-07-20T12:02:57;5.43;;;1.10;;
44456;SDS011;30159;49.316;8.558;2023-07-20T12:05:24;1.67;;;1.20;;
44456;SDS011;30159;49.316;8.558;2023-07-20T12:07:51;1.40;;;1.10;;
44456;SDS011;30159;49.316;8.558;2023-07-20T12:10:23;2.13;;;1.20;;
44456;SDS011;30159;49.316;8.558;2023-07-20T12:12:52;2.03;;;1.40;;
44456;SDS011;30159;49.316;8.558;2023-07-20T12:15:22;2.13;;;1.07;;
44456;SDS011;30159;49.316;8.558;2023-07-20T12:17:52;1.30;;;1.20;;
44456;SDS011;30159;49.316;8.558;2023-07-20T12:20:25;1.17;;;1.00;;
44456;SDS011;30159;49.316;8.558;2023-07-20T12:22:55;7.50;;;1.10;;
44456;SDS011;30159;49.316;8.558;2023-07-20T12:25:23;1.23;;;1.10;;
44456;SDS011;30159;49.316;8.558;2023-07-20T12:27:49;1.40;;;1.10;;
44456;SDS011;30159;49.316;8.558;2023-07-20T12:30:17;1.57;;;1.10;;
44456;SDS011;30159;49.316;8.558;2023-07-20T12:32:44;1.10;;;0.90;;
44456;SDS011;30159;49.316;8.558;2023-07-20T12:35:11;2.17;;;1.10;;
44456;SDS011;30159;49.316;8.558;2023-07-20T12:37:39;0.93;;;0.90;;
44456;SDS011;30159;49.316;8.558;2023-07-20T12:40:06;2.33;;;1.37;;
44456;SDS011;30159;49.316;8.558;2023-07-20T12:42:35;1.00;;;0.93;;
44456;SDS011;30159;49.316;8.558;2023-07-20T12:45:02;1.47;;;1.03;;
44456;SDS011;30159;49.316;8.558;2023-07-20T12:47:31;0.80;;;0.80;;
44456;SDS011;30159;49.316;8.558;2023-07-20T12:49:58;1.10;;;1.00;;
44456;SDS011;30159;49.316;8.558;2023-07-20T12:52:25;0.93;;;0.87;;
44456;SDS011;30159;49.316;8.558;2023-07-20T12:54:52;1.30;;;1.20;;
44456;SDS011;30159;49.316;8.558;2023-07-20T12:57:18;1.30;;;1.20;;
44456;SDS011;30159;49.316;8.558;2023-07-20T12:59:45;1.20;;;1.10;;
44456;SDS011;30159;49.316;8.558;2023-07-20T13:02:11;1.10;;;1.00;;
44456;SDS011;30159;49.316;8.558;2023-07-20T13:04:39;1.53;;;1.00;;
44456;SDS011;30159;49.316;8.558;2023-07-20T13:07:09;1.10;;;1.00;;
44456;SDS011;30159;49.316;8.558;2023-07-20T13:09:37;2.10;;;1.47;;
44456;SDS011;30159;49.316;8.558;2023-07-20T13:12:03;1.20;;;1.10;;
44456;SDS011;30159;49.316;8.558;2023-07-20T13:14:30;1.10;;;1.00;;
44456;SDS011;30159;49.316;8.558;2023-07-20T13:16:57;1.10;;;1.00;;
44456;SDS011;30159;49.316;8.558;2023-07-20T13:19:23;1.20;;;1.10;;
44456;SDS011;30159;49.316;8.558;2023-07-20T13:21:52;2.00;;;1.00;;
44456;SDS011;30159;49.316;8.558;2023-07-20T13:24:18;1.97;;;1.00;;
44456;SDS011;30159;49.316;8.558;2023-07-20T13:26:45;1.50;;;0.90;;
44456;SDS011;30159;49.316;8.558;2023-07-20T13:29:11;2.70;;;1.13;;
44456;SDS011;30159;49.316;8.558;2023-07-20T13:31:38;2.30;;;1.00;;
44456;SDS011;30159;49.316;8.558;2023-07-20T13:34:04;0.90;;;0.90;;
44456;SDS011;30159;49.316;8.558;2023-07-20T13:36:31;1.30;;;1.20;;
44456;SDS011;30159;49.316;8.558;2023-07-20T13:38:59;0.77;;;0.77;;
44456;SDS011;30159;49.316;8.558;2023-07-20T13:41:26;1.03;;;0.93;;
44456;SDS011;30159;49.316;8.558;2023-07-20T13:43:52;1.13;;;0.90;;
44456;SDS011;30159;49.316;8.558;2023-07-20T13:46:19;0.90;;;0.80;;
44456;SDS011;30159;49.316;8.558;2023-07-20T13:48:45;1.20;;;0.97;;
44456;SDS011;30159;49.316;8.558;2023-07-20T13:51:12;2.27;;;1.10;;
44456;SDS011;30159;49.316;8.558;2023-07-20T13:53:38;0.80;;;0.80;;
44456;SDS011;30159;49.316;8.558;2023-07-20T13:56:06;1.10;;;1.00;;
44456;SDS011;30159;49.316;8.558;2023-07-20T13:58:33;1.70;;;1.10;;
44456;SDS011;30159;49.316;8.558;2023-07-20T14:01:00;1.40;;;1.30;;
44456;SDS011;30159;49.316;8.558;2023-07-20T14:03:26;2.63;;;0.90;;
44456;SDS011;30159;49.316;8.558;2023-07-20T14:05:53;1.10;;;1.00;;
44456;SDS011;30159;49.316;8.558;2023-07-20T14:08:20;1.10;;;1.00;;
44456;SDS011;30159;49.316;8.558;2023-07-20T14:10:47;1.00;;;0.90;;
44456;SDS011;30159;49.316;8.558;2023-07-20T14:13:15;1.30;;;1.03;;
44456;SDS011;30159;49.316;8.558;2023-07-20T14:15:41;1.80;;;1.10;;
44456;SDS011;30159;49.316;8.558;2023-07-20T14:18:08;1.60;;;0.90;;
44456;SDS011;30159;49.316;8.558;2023-07-20T14:20:35;1.00;;;0.90;;
44456;SDS011;30159;49.316;8.558;2023-07-20T14:23:01;1.20;;;0.90;;
44456;SDS011;30159;49.316;8.558;2023-07-20T14:25:28;0.80;;;0.80;;
44456;SDS011;30159;49.316;8.558;2023-07-20T14:27:54;0.90;;;0.90;;
44456;SDS011;30159;49.316;8.558;2023-07-20T14:30:22;1.10;;;0.90;;
44456;SDS011;30159;49.316;8.558;2023-07-20T14:32:49;0.90;;;0.90;;
44456;SDS011;30159;49.316;8.558;2023-07-20T14:35:16;1.20;;;1.10;;
44456;SDS011;30159;49.316;8.558;2023-07-20T14:37:42;0.93;;;0.83;;
44456;SDS011;30159;49.316;8.558;2023-07-20T14:40:12;1.00;;;0.90;;
44456;SDS011;30159;49.316;8.558;2023-07-20T14:42:38;1.47;;;1.13;;
44456;SDS011;30159;49.316;8.558;2023-07-20T14:45:05;1.20;;;1.10;;
44456;SDS011;30159;49.316;8.558;2023-07-20T14:47:34;1.20;;;1.10;;
44456;SDS011;30159;49.316;8.558;2023-07-20T14:50:01;1.20;;;1.10;;
44456;SDS011;30159;49.316;8.558;2023-07-20T14:52:28;1.10;;;0.90;;
44456;SDS011;30159;49.316;8.558;2023-07-20T14:54:55;1.43;;;1.20;;